createdAt,value
2022-08-26T00:00:18.808Z,4.95
2022-08-26T00:01:37.476Z,4.81
2022-08-26T00:02:39.881Z,4.80
2022-08-26T00:03:42.306Z,5.44
2022-08-26T00:04:44.044Z,5.36
2022-08-26T00:05:47.865Z,5.91
2022-08-26T00:06:49.535Z,5.99
2022-08-26T00:07:51.426Z,5.86
2022-08-26T00:08:53.392Z,5.73
2022-08-26T00:09:55.278Z,5.76
2022-08-26T00:10:57.053Z,5.66
2022-08-26T00:12:01.764Z,5.22
2022-08-26T00:13:05.621Z,5.35
2022-08-26T00:14:08.036Z,5.80
2022-08-26T00:15:12.629Z,5.37
2022-08-26T00:16:14.643Z,5.86
2022-08-26T00:17:16.421Z,5.80
2022-08-26T00:18:22.719Z,4.80
2022-08-26T00:19:24.646Z,5.07
2022-08-26T00:20:30.945Z,4.75
2022-08-26T00:21:33.066Z,4.82
2022-08-26T00:22:37.058Z,5.07
2022-08-26T00:23:38.894Z,5.28
2022-08-26T00:24:40.549Z,4.71
2022-08-26T00:25:49.867Z,5.12
2022-08-26T00:26:51.731Z,5.00
2022-08-26T00:27:53.719Z,5.22
2022-08-26T00:28:57.754Z,4.94
2022-08-26T00:30:00.761Z,5.33
2022-08-26T00:31:03.059Z,5.02
2022-08-26T00:32:05.539Z,5.28
2022-08-26T00:33:08.405Z,5.28
2022-08-26T00:34:11.299Z,5.17
2022-08-26T00:35:15.533Z,4.85
2022-08-26T00:36:20.250Z,5.49
2022-08-26T00:37:22.628Z,4.95
2022-08-26T00:38:26.751Z,5.20
2022-08-26T00:39:28.799Z,5.25
2022-08-26T00:40:36.715Z,5.25
2022-08-26T00:41:41.046Z,5.48
2022-08-26T00:42:46.138Z,5.18
2022-08-26T00:43:48.136Z,4.78
2022-08-26T00:44:50.712Z,4.59
2022-08-26T00:46:29.351Z,4.77
2022-08-26T00:47:40.111Z,5.16
2022-08-26T00:48:47.234Z,5.18
2022-08-26T00:49:52.011Z,5.37
2022-08-26T00:51:06.723Z,5.07
2022-08-26T00:52:15.386Z,5.19
2022-08-26T00:53:26.041Z,5.43
2022-08-26T00:54:40.194Z,5.42
2022-08-26T00:55:44.228Z,5.28
2022-08-26T00:56:57.801Z,5.33
2022-08-26T00:58:02.511Z,4.85
2022-08-26T00:59:10.851Z,5.20
2022-08-26T01:00:19.038Z,5.30
2022-08-26T01:01:22.803Z,5.96
2022-08-26T01:02:25.744Z,5.80
2022-08-26T01:03:31.421Z,5.08
2022-08-26T01:04:37.044Z,5.77
2022-08-26T01:05:41.238Z,5.48
2022-08-26T01:06:44.310Z,5.19
2022-08-26T01:07:46.883Z,5.28
2022-08-26T01:08:48.555Z,5.61
2022-08-26T01:09:50.331Z,5.62
2022-08-26T01:10:55.747Z,5.65
2022-08-26T01:12:01.720Z,5.24
2022-08-26T01:13:10.107Z,5.12
2022-08-26T01:14:14.298Z,5.42
2022-08-26T01:15:21.825Z,5.17
2022-08-26T01:16:25.485Z,5.14
2022-08-26T01:17:27.636Z,5.00
2022-08-26T01:18:31.544Z,5.14
2022-08-26T01:19:43.481Z,5.31
2022-08-26T01:21:07.177Z,5.62
2022-08-26T01:22:28.097Z,5.16
2022-08-26T01:23:39.246Z,5.01
2022-08-26T01:24:42.060Z,5.76
2022-08-26T01:25:53.586Z,5.33
2022-08-26T01:27:04.377Z,5.41
2022-08-26T01:28:12.310Z,5.34
2022-08-26T01:29:18.672Z,5.48
2022-08-26T01:30:22.083Z,4.98
2022-08-26T01:31:27.964Z,5.81
2022-08-26T01:32:32.981Z,5.34
2022-08-26T01:33:47.495Z,5.25
2022-08-26T01:34:49.386Z,5.06
2022-08-26T01:35:52.116Z,5.09
2022-08-26T01:37:05.455Z,5.35
2022-08-26T01:38:07.274Z,5.00
2022-08-26T01:39:09.782Z,5.16
2022-08-26T01:40:20.507Z,5.06
2022-08-26T01:41:27.432Z,5.22
2022-08-26T01:42:31.273Z,4.98
2022-08-26T01:43:35.338Z,5.06
2022-08-26T01:44:46.046Z,5.03
2022-08-26T01:45:50.487Z,5.38
2022-08-26T01:46:53.847Z,5.19
2022-08-26T01:48:00.145Z,5.57
2022-08-26T01:49:07.989Z,5.72
2022-08-26T01:50:15.825Z,5.23
2022-08-26T01:51:37.071Z,5.08
2022-08-26T01:52:44.381Z,5.07
2022-08-26T01:53:48.322Z,5.29
2022-08-26T01:54:52.003Z,5.46
2022-08-26T01:55:58.317Z,5.00
2022-08-26T01:57:01.904Z,5.20
2022-08-26T01:58:09.748Z,5.91
2022-08-26T01:59:16.796Z,5.36
2022-08-26T02:00:19.196Z,5.33
2022-08-26T02:01:22.537Z,5.23
2022-08-26T02:02:30.705Z,5.44
2022-08-26T02:03:34.714Z,5.16
2022-08-26T02:04:49.935Z,5.19
2022-08-26T02:05:56.337Z,5.38
2022-08-26T02:07:04.983Z,5.13
2022-08-26T02:08:08.475Z,5.61
2022-08-26T02:09:11.732Z,4.88
2022-08-26T02:10:14.906Z,4.65
2022-08-26T02:11:18.309Z,5.42
2022-08-26T02:12:20.850Z,5.07
2022-08-26T02:13:26.613Z,5.37
2022-08-26T02:14:34.718Z,5.19
2022-08-26T02:15:37.925Z,5.39
2022-08-26T02:16:47.835Z,5.13
2022-08-26T02:17:52.791Z,4.97
2022-08-26T02:18:56.065Z,5.06
2022-08-26T02:19:58.025Z,5.03
2022-08-26T02:21:00.417Z,5.55
2022-08-26T02:22:07.153Z,5.07
2022-08-26T02:23:10.085Z,5.32
2022-08-26T02:24:15.047Z,5.54
2022-08-26T02:25:38.294Z,5.29
2022-08-26T02:26:43.606Z,5.15
2022-08-26T02:27:47.391Z,5.46
2022-08-26T02:29:16.349Z,5.54
2022-08-26T02:30:28.203Z,5.30
2022-08-26T02:31:30.306Z,5.16
2022-08-26T02:32:32.481Z,5.49
2022-08-26T02:33:34.306Z,5.37
2022-08-26T02:34:37.590Z,5.41
2022-08-26T02:35:39.803Z,5.58
2022-08-26T02:36:42.228Z,5.23
2022-08-26T02:37:44.365Z,5.46
2022-08-26T02:38:46.204Z,5.80
2022-08-26T02:39:48.097Z,5.26
2022-08-26T02:40:49.867Z,5.51
2022-08-26T02:41:52.741Z,4.82
2022-08-26T02:42:56.041Z,5.11
2022-08-26T02:43:58.893Z,5.57
2022-08-26T02:45:01.221Z,5.50
2022-08-26T02:46:02.886Z,6.05
2022-08-26T02:47:05.286Z,6.15
2022-08-26T02:48:13.039Z,5.49
2022-08-26T02:49:16.285Z,5.64
2022-08-26T02:50:19.518Z,5.80
2022-08-26T02:51:21.265Z,5.60
2022-08-26T02:52:23.870Z,5.62
2022-08-26T02:53:25.798Z,5.53
2022-08-26T02:54:27.886Z,5.27
2022-08-26T02:55:29.582Z,5.76
2022-08-26T02:56:33.406Z,5.64
2022-08-26T02:57:37.421Z,5.42
2022-08-26T02:58:39.655Z,5.21
2022-08-26T02:59:41.394Z,5.28
2022-08-26T03:00:52.893Z,5.29
2022-08-26T03:01:56.079Z,5.25
2022-08-26T03:02:58.962Z,5.50
2022-08-26T03:04:03.948Z,5.26
2022-08-26T03:05:07.313Z,5.69
2022-08-26T03:06:09.055Z,5.54
2022-08-26T03:07:11.010Z,5.81
2022-08-26T03:08:12.693Z,5.91
2022-08-26T03:09:18.630Z,6.15
2022-08-26T03:10:21.407Z,5.48
2022-08-26T03:11:24.605Z,5.62
2022-08-26T03:12:26.909Z,5.87
2022-08-26T03:13:28.863Z,5.90
2022-08-26T03:14:30.589Z,6.03
2022-08-26T03:15:32.442Z,5.73
2022-08-26T03:16:36.537Z,6.15
2022-08-26T03:17:38.910Z,6.13
2022-08-26T03:18:41.690Z,5.80
2022-08-26T03:19:43.646Z,5.75
2022-08-26T03:20:46.481Z,5.29
2022-08-26T03:21:48.544Z,6.06
2022-08-26T03:22:53.758Z,6.37
2022-08-26T03:23:59.245Z,6.46
2022-08-26T03:25:03.571Z,6.61
2022-08-26T03:26:06.657Z,6.12
2022-08-26T03:27:08.459Z,6.16
2022-08-26T03:28:10.113Z,6.28
2022-08-26T03:29:30.856Z,6.03
2022-08-26T03:30:45.494Z,6.05
2022-08-26T03:31:47.604Z,5.94
2022-08-26T03:32:49.612Z,6.11
2022-08-26T03:33:51.904Z,6.14
2022-08-26T03:34:54.244Z,5.95
2022-08-26T03:35:56.097Z,6.29
2022-08-26T03:36:58.847Z,5.74
2022-08-26T03:38:01.083Z,6.15
2022-08-26T03:39:03.774Z,5.89
2022-08-26T03:40:09.042Z,5.68
2022-08-26T03:41:12.259Z,6.04
2022-08-26T03:42:14.936Z,5.76
2022-08-26T03:43:18.706Z,5.52
2022-08-26T03:44:20.386Z,5.93
2022-08-26T03:45:22.251Z,5.49
2022-08-26T03:46:24.092Z,5.55
2022-08-26T03:47:28.594Z,5.40
2022-08-26T03:48:30.286Z,6.07
2022-08-26T03:49:34.164Z,5.97
2022-08-26T03:50:36.013Z,6.15
2022-08-26T03:51:38.979Z,5.66
2022-08-26T03:52:44.051Z,6.06
2022-08-26T03:53:48.144Z,5.75
2022-08-26T03:54:49.992Z,5.44
2022-08-26T03:55:52.061Z,5.67
2022-08-26T03:56:53.951Z,5.89
2022-08-26T03:57:55.766Z,5.69
2022-08-26T03:58:57.509Z,6.19
2022-08-26T03:59:59.215Z,5.96
2022-08-26T04:01:00.934Z,6.01
2022-08-26T04:02:03.046Z,5.88
2022-08-26T04:03:14.756Z,5.69
2022-08-26T04:04:22.857Z,5.85
2022-08-26T04:05:26.897Z,5.99
2022-08-26T04:06:38.209Z,5.57
2022-08-26T04:07:40.913Z,5.14
2022-08-26T04:08:43.106Z,5.80
2022-08-26T04:09:44.763Z,5.61
2022-08-26T04:10:46.733Z,5.75
2022-08-26T04:11:50.682Z,5.66
2022-08-26T04:12:53.293Z,6.31
2022-08-26T04:13:54.941Z,5.62
2022-08-26T04:14:57.177Z,6.19
2022-08-26T04:15:59.593Z,5.57
2022-08-26T04:17:02.756Z,6.03
2022-08-26T04:18:04.569Z,5.84
2022-08-26T04:19:06.595Z,5.55
2022-08-26T04:20:13.847Z,5.90
2022-08-26T04:21:17.961Z,5.71
2022-08-26T04:22:24.417Z,6.27
2022-08-26T04:23:27.421Z,5.71
2022-08-26T04:24:29.506Z,5.50
2022-08-26T04:25:31.157Z,6.00
2022-08-26T04:26:39.451Z,5.65
2022-08-26T04:27:44.285Z,6.25
2022-08-26T04:28:50.402Z,5.90
2022-08-26T04:29:55.153Z,6.43
2022-08-26T04:30:57.690Z,6.18
2022-08-26T04:31:59.384Z,6.08
2022-08-26T04:33:04.537Z,5.98
2022-08-26T04:34:15.713Z,6.02
2022-08-26T04:35:17.821Z,6.20
2022-08-26T04:36:20.154Z,5.90
2022-08-26T04:37:21.996Z,5.99
2022-08-26T04:38:24.325Z,5.69
2022-08-26T04:39:27.733Z,6.29
2022-08-26T04:40:29.663Z,5.77
2022-08-26T04:41:32.718Z,5.83
2022-08-26T04:42:34.417Z,5.35
2022-08-26T04:43:37.293Z,5.75
2022-08-26T04:44:41.085Z,6.02
2022-08-26T04:45:43.613Z,5.48
2022-08-26T04:46:45.320Z,6.14
2022-08-26T04:47:47.358Z,6.09
2022-08-26T04:48:51.664Z,6.32
2022-08-26T04:49:57.854Z,6.06
2022-08-26T04:51:00.549Z,5.93
2022-08-26T04:52:02.999Z,5.69
2022-08-26T04:53:04.693Z,5.97
2022-08-26T04:54:09.209Z,6.25
2022-08-26T04:55:11.045Z,5.82
2022-08-26T04:56:14.309Z,5.98
2022-08-26T04:57:16.033Z,5.93
2022-08-26T04:58:20.061Z,6.38
2022-08-26T04:59:21.940Z,6.16
2022-08-26T05:00:23.766Z,6.25
2022-08-26T05:01:29.874Z,6.05
2022-08-26T05:02:31.602Z,5.94
2022-08-26T05:03:36.311Z,6.16
2022-08-26T05:04:38.069Z,5.67
2022-08-26T05:05:42.431Z,5.85
2022-08-26T05:06:44.268Z,5.85
2022-08-26T05:07:45.934Z,6.10
2022-08-26T05:08:48.334Z,6.14
2022-08-26T05:09:50.007Z,5.90
2022-08-26T05:10:56.278Z,6.12
2022-08-26T05:11:58.324Z,5.15
2022-08-26T05:13:00.633Z,5.60
2022-08-26T05:14:02.571Z,5.93
2022-08-26T05:15:04.864Z,5.86
2022-08-26T05:16:11.592Z,5.95
2022-08-26T05:17:14.861Z,5.54
2022-08-26T05:18:21.126Z,5.65
2022-08-26T05:19:23.639Z,5.89
2022-08-26T05:20:26.083Z,5.87
2022-08-26T05:21:29.061Z,6.36
2022-08-26T05:22:30.830Z,5.93
2022-08-26T05:23:35.639Z,6.23
2022-08-26T05:24:37.320Z,5.87
2022-08-26T05:25:43.023Z,5.89
2022-08-26T05:26:45.207Z,5.76
2022-08-26T05:27:47.182Z,5.91
2022-08-26T05:28:49.330Z,5.82
2022-08-26T05:29:54.474Z,5.59
2022-08-26T05:30:57.157Z,5.75
2022-08-26T05:32:00.809Z,5.97
2022-08-26T05:33:02.858Z,5.36
2022-08-26T05:34:04.738Z,5.64
2022-08-26T05:35:08.839Z,5.94
2022-08-26T05:36:15.142Z,5.89
2022-08-26T05:37:17.184Z,5.51
2022-08-26T05:38:21.837Z,6.09
2022-08-26T05:39:24.549Z,5.88
2022-08-26T05:40:27.154Z,5.76
2022-08-26T05:41:36.469Z,5.47
2022-08-26T05:42:38.530Z,5.31
2022-08-26T05:43:40.162Z,5.91
2022-08-26T05:44:53.725Z,6.30
2022-08-26T05:46:07.739Z,5.08
2022-08-26T05:47:09.666Z,5.57
2022-08-26T05:48:11.503Z,5.79
2022-08-26T05:49:14.763Z,5.59
2022-08-26T05:50:21.855Z,5.84
2022-08-26T05:51:26.259Z,5.80
2022-08-26T05:52:28.496Z,5.68
2022-08-26T05:53:30.693Z,5.59
2022-08-26T05:54:34.793Z,6.11
2022-08-26T05:55:46.312Z,5.64
2022-08-26T05:56:47.965Z,5.86
2022-08-26T05:57:50.682Z,5.44
2022-08-26T05:58:52.304Z,5.15
2022-08-26T05:59:54.001Z,5.49
2022-08-26T06:00:58.425Z,5.55
2022-08-26T06:02:02.030Z,5.51
2022-08-26T06:03:03.950Z,5.40
2022-08-26T06:04:07.040Z,5.27
2022-08-26T06:05:09.056Z,5.38
2022-08-26T06:06:15.522Z,6.31
2022-08-26T06:07:41.819Z,6.31
2022-08-26T06:08:44.738Z,6.41
2022-08-26T06:09:46.400Z,6.41
2022-08-26T06:10:52.644Z,6.01
2022-08-26T06:11:55.871Z,6.28
2022-08-26T06:12:57.601Z,6.24
2022-08-26T06:14:05.301Z,6.39
2022-08-26T06:15:07.450Z,7.25
2022-08-26T06:16:12.892Z,7.09
2022-08-26T06:17:14.635Z,6.16
2022-08-26T06:18:20.709Z,5.79
2022-08-26T06:19:23.309Z,5.98
2022-08-26T06:20:25.055Z,5.93
2022-08-26T06:21:32.136Z,6.04
2022-08-26T06:22:52.357Z,5.98
2022-08-26T06:24:18.257Z,5.77
2022-08-26T06:25:38.732Z,5.61
2022-08-26T06:26:42.988Z,5.34
2022-08-26T06:27:48.895Z,5.92
2022-08-26T06:28:50.843Z,5.16
2022-08-26T06:29:52.621Z,4.99
2022-08-26T06:30:55.490Z,5.94
2022-08-26T06:31:58.401Z,5.47
2022-08-26T06:33:01.080Z,5.19
2022-08-26T06:34:10.345Z,5.35
2022-08-26T06:35:12.864Z,6.10
2022-08-26T06:36:21.886Z,5.82
2022-08-26T06:37:25.349Z,5.54
2022-08-26T06:38:27.413Z,5.02
2022-08-26T06:39:30.892Z,5.06
2022-08-26T06:40:33.963Z,5.84
2022-08-26T06:41:42.772Z,6.05
2022-08-26T06:42:46.204Z,5.91
2022-08-26T06:43:48.138Z,5.78
2022-08-26T06:44:49.769Z,5.38
2022-08-26T06:45:52.497Z,5.25
2022-08-26T06:46:54.271Z,5.73
2022-08-26T06:47:56.365Z,5.60
2022-08-26T06:48:58.377Z,5.87
2022-08-26T06:50:00.041Z,5.50
2022-08-26T06:51:14.904Z,5.45
2022-08-26T06:52:22.954Z,5.67
2022-08-26T06:53:27.441Z,5.87
2022-08-26T06:54:31.485Z,6.13
2022-08-26T06:55:33.191Z,6.07
2022-08-26T06:56:38.849Z,5.68
2022-08-26T06:57:41.255Z,5.66
2022-08-26T06:58:44.066Z,6.30
2022-08-26T06:59:45.708Z,6.68
2022-08-26T07:00:47.661Z,5.88
2022-08-26T07:01:49.972Z,6.02
2022-08-26T07:02:51.748Z,5.46
2022-08-26T07:03:57.100Z,5.53
2022-08-26T07:04:58.835Z,5.12
2022-08-26T07:06:04.182Z,5.56
2022-08-26T07:07:06.885Z,5.72
2022-08-26T07:08:11.398Z,5.15
2022-08-26T07:09:13.243Z,5.33
2022-08-26T07:10:16.014Z,4.93
2022-08-26T07:11:19.471Z,4.86
2022-08-26T07:12:21.442Z,4.85
2022-08-26T07:13:29.943Z,4.75
2022-08-26T07:14:34.846Z,5.19
2022-08-26T07:15:41.182Z,4.80
2022-08-26T07:16:42.888Z,4.89
2022-08-26T07:17:44.909Z,5.31
2022-08-26T07:18:48.483Z,5.24
2022-08-26T07:19:51.574Z,5.18
2022-08-26T07:20:54.317Z,4.87
2022-08-26T07:21:56.014Z,5.51
2022-08-26T07:22:58.991Z,5.38
2022-08-26T07:24:00.761Z,5.13
2022-08-26T07:25:07.441Z,4.90
2022-08-26T07:26:16.261Z,5.59
2022-08-26T07:27:18.027Z,5.19
2022-08-26T07:28:20.088Z,4.83
2022-08-26T07:29:22.058Z,4.31
2022-08-26T07:30:26.362Z,4.25
2022-08-26T07:31:36.010Z,4.37
2022-08-26T07:32:41.897Z,4.60
2022-08-26T07:33:44.543Z,5.32
2022-08-26T07:34:46.245Z,4.77
2022-08-26T07:35:47.937Z,4.70
2022-08-26T07:36:51.398Z,4.91
2022-08-26T07:37:56.894Z,4.29
2022-08-26T07:38:59.069Z,4.52
2022-08-26T07:40:00.784Z,4.51
2022-08-26T07:41:03.657Z,4.77
2022-08-26T07:42:08.129Z,4.57
2022-08-26T07:43:10.336Z,5.22
2022-08-26T07:44:12.339Z,4.87
2022-08-26T07:45:14.429Z,5.14
2022-08-26T07:46:20.868Z,4.91
2022-08-26T07:47:29.365Z,4.59
2022-08-26T07:48:31.307Z,4.40
2022-08-26T07:49:36.585Z,4.83
2022-08-26T07:50:49.529Z,4.47
2022-08-26T07:51:54.413Z,4.80
2022-08-26T07:52:56.549Z,4.56
2022-08-26T07:53:58.579Z,4.40
2022-08-26T07:55:02.293Z,4.61
2022-08-26T07:56:04.945Z,4.74
2022-08-26T07:57:09.337Z,4.78
2022-08-26T07:58:12.121Z,4.75
2022-08-26T07:59:15.170Z,4.47
2022-08-26T08:00:18.012Z,4.04
2022-08-26T08:01:23.547Z,4.37
2022-08-26T08:02:28.372Z,4.47
2022-08-26T08:03:30.161Z,4.96
2022-08-26T08:04:32.110Z,4.59
2022-08-26T08:05:34.731Z,4.90
2022-08-26T08:06:37.502Z,4.54
2022-08-26T08:07:44.645Z,5.16
2022-08-26T08:08:47.682Z,4.91
2022-08-26T08:09:52.715Z,4.80
2022-08-26T08:10:55.178Z,4.59
2022-08-26T08:11:56.966Z,4.19
2022-08-26T08:12:58.973Z,4.45
2022-08-26T08:14:01.625Z,4.70
2022-08-26T08:15:04.109Z,4.38
2022-08-26T08:16:07.908Z,4.31
2022-08-26T08:17:15.076Z,4.29
2022-08-26T08:18:17.578Z,4.04
2022-08-26T08:19:23.826Z,4.82
2022-08-26T08:20:28.339Z,4.03
2022-08-26T08:21:30.498Z,4.42
2022-08-26T08:22:32.502Z,4.75
2022-08-26T08:23:35.449Z,5.02
2022-08-26T08:24:37.883Z,5.27
2022-08-26T08:25:39.627Z,5.01
2022-08-26T08:26:41.760Z,5.07
2022-08-26T08:27:45.202Z,4.79
2022-08-26T08:28:47.948Z,4.70
2022-08-26T08:29:50.227Z,4.42
2022-08-26T08:30:51.916Z,4.63
2022-08-26T08:31:56.939Z,4.79
2022-08-26T08:32:59.958Z,4.38
2022-08-26T08:34:01.749Z,4.69
2022-08-26T08:35:11.127Z,4.69
2022-08-26T08:36:18.475Z,4.84
2022-08-26T08:37:23.365Z,4.34
2022-08-26T08:38:26.250Z,4.59
2022-08-26T08:39:28.080Z,4.43
2022-08-26T08:40:30.098Z,4.80
2022-08-26T08:41:46.510Z,4.95
2022-08-26T08:42:57.621Z,4.43
2022-08-26T08:44:01.745Z,4.70
2022-08-26T08:45:33.370Z,4.69
2022-08-26T08:46:42.145Z,4.95
2022-08-26T08:47:57.168Z,5.14
2022-08-26T08:48:59.963Z,4.73
2022-08-26T08:50:22.893Z,4.90
2022-08-26T08:51:40.813Z,5.14
2022-08-26T08:52:49.081Z,4.95
2022-08-26T08:53:55.032Z,5.42
2022-08-26T08:54:57.452Z,5.04
2022-08-26T08:56:05.232Z,5.01
2022-08-26T08:57:17.401Z,4.95
2022-08-26T08:58:24.701Z,5.15
2022-08-26T08:59:34.122Z,4.92
2022-08-26T09:00:46.538Z,4.99
2022-08-26T09:01:52.543Z,5.33
2022-08-26T09:03:25.317Z,5.30
2022-08-26T09:05:03.162Z,5.11
2022-08-26T09:06:17.012Z,5.25
2022-08-26T09:07:47.141Z,5.50
2022-08-26T09:08:51.797Z,5.64
2022-08-26T09:10:03.939Z,5.56
2022-08-26T09:11:06.278Z,4.95
2022-08-26T09:12:16.381Z,4.91
2022-08-26T09:13:26.056Z,5.22
2022-08-26T09:14:29.196Z,5.12
2022-08-26T09:15:57.144Z,5.38
2022-08-26T09:17:18.625Z,4.88
2022-08-26T09:18:50.838Z,5.14
2022-08-26T09:20:00.177Z,4.75
2022-08-26T09:21:06.029Z,4.80
2022-08-26T09:22:09.562Z,5.33
2022-08-26T09:23:11.645Z,5.45
2022-08-26T09:24:13.882Z,5.26
2022-08-26T09:25:16.148Z,5.50
2022-08-26T09:26:25.841Z,5.20
2022-08-26T09:27:47.015Z,5.22
2022-08-26T09:28:59.606Z,4.69
2022-08-26T09:30:01.258Z,5.45
2022-08-26T09:31:12.471Z,5.36
2022-08-26T09:32:24.877Z,4.75
2022-08-26T09:33:32.220Z,5.22
2022-08-26T09:34:33.910Z,5.39
2022-08-26T09:35:38.581Z,5.14
2022-08-26T09:36:44.002Z,5.19
2022-08-26T09:38:55.814Z,5.14
2022-08-26T09:40:22.566Z,5.17
2022-08-26T09:41:31.484Z,5.28
2022-08-26T09:42:33.414Z,5.02
2022-08-26T09:43:35.084Z,5.33
2022-08-26T09:44:56.918Z,5.03
2022-08-26T09:46:17.602Z,4.95
2022-08-26T09:47:31.672Z,5.24
2022-08-26T09:48:37.474Z,4.97
2022-08-26T09:49:42.520Z,4.73
2022-08-26T09:51:02.470Z,4.41
2022-08-26T09:52:09.107Z,4.51
2022-08-26T09:53:28.452Z,4.75
2022-08-26T09:54:32.483Z,4.95
2022-08-26T09:55:37.334Z,4.97
2022-08-26T09:56:39.750Z,4.60
2022-08-26T09:57:49.724Z,4.85
2022-08-26T09:58:53.306Z,4.92
2022-08-26T09:59:55.756Z,4.61
2022-08-26T10:01:01.407Z,4.46
2022-08-26T10:02:37.791Z,4.65
2022-08-26T10:03:41.670Z,4.77
2022-08-26T10:04:54.150Z,4.63
2022-08-26T10:06:24.492Z,5.29
2022-08-26T10:07:44.457Z,4.80
2022-08-26T10:08:55.023Z,5.02
2022-08-26T10:09:56.979Z,5.27
2022-08-26T10:11:04.430Z,4.80
2022-08-26T10:12:17.400Z,4.54
2022-08-26T10:13:33.253Z,4.50
2022-08-26T10:16:01.714Z,4.37
2022-08-26T10:17:08.305Z,4.35
2022-08-26T10:18:19.810Z,4.98
2022-08-26T10:19:41.310Z,4.27
2022-08-26T10:20:57.046Z,4.35
2022-08-26T10:22:14.194Z,4.04
2022-08-26T10:23:24.727Z,4.23
2022-08-26T10:24:34.952Z,4.56
2022-08-26T10:25:59.041Z,4.23
2022-08-26T10:27:31.632Z,4.63
2022-08-26T10:28:54.988Z,4.30
2022-08-26T10:30:06.496Z,4.17
2022-08-26T10:31:27.458Z,4.31
2022-08-26T10:32:41.439Z,4.05
2022-08-26T10:33:43.474Z,4.11
2022-08-26T10:34:45.406Z,4.31
2022-08-26T10:35:57.543Z,4.45
2022-08-26T10:37:20.924Z,4.17
2022-08-26T10:38:32.496Z,4.23
2022-08-26T10:39:58.962Z,4.87
2022-08-26T10:41:20.606Z,3.84
2022-08-26T10:42:40.027Z,4.14
2022-08-26T10:43:51.625Z,4.07
2022-08-26T10:45:02.492Z,4.14
2022-08-26T10:46:10.149Z,4.01
2022-08-26T10:47:20.567Z,3.99
2022-08-26T10:48:42.099Z,4.26
2022-08-26T10:49:47.197Z,4.60
2022-08-26T10:50:50.039Z,3.90
2022-08-26T10:52:16.842Z,4.07
2022-08-26T10:53:44.327Z,4.16
2022-08-26T10:54:56.422Z,4.12
2022-08-26T10:56:19.194Z,4.00
2022-08-26T10:57:44.365Z,3.78
2022-08-26T10:59:03.206Z,4.01
2022-08-26T11:00:38.444Z,3.83
2022-08-26T11:02:06.360Z,3.66
2022-08-26T11:03:28.252Z,3.95
2022-08-26T11:04:35.023Z,3.84
2022-08-26T11:05:37.070Z,4.02
2022-08-26T11:06:41.934Z,3.99
2022-08-26T11:07:46.837Z,3.86
2022-08-26T11:08:53.188Z,4.00
2022-08-26T11:09:54.951Z,4.03
2022-08-26T11:10:59.659Z,4.01
2022-08-26T11:12:06.415Z,4.04
2022-08-26T11:13:12.138Z,4.06
2022-08-26T11:14:29.124Z,4.18
2022-08-26T11:15:31.382Z,3.94
2022-08-26T11:16:43.244Z,3.82
2022-08-26T11:17:45.570Z,4.11
2022-08-26T11:18:48.721Z,4.23
2022-08-26T11:20:02.608Z,3.91
2022-08-26T11:21:44.562Z,3.89
2022-08-26T11:22:47.995Z,3.97
2022-08-26T11:23:50.579Z,4.21
2022-08-26T11:24:52.464Z,3.89
2022-08-26T11:26:35.735Z,4.46
2022-08-26T11:27:36.412Z,3.97
2022-08-26T11:28:45.586Z,3.79
2022-08-26T11:30:13.227Z,3.91
2022-08-26T11:31:25.074Z,3.83
2022-08-26T11:32:51.138Z,4.16
2022-08-26T11:33:56.979Z,3.66
2022-08-26T11:35:00.618Z,4.11
2022-08-26T11:36:11.532Z,3.97
2022-08-26T11:37:18.216Z,4.21
2022-08-26T11:38:29.245Z,4.02
2022-08-26T11:39:54.033Z,3.42
2022-08-26T11:41:08.907Z,3.91
2022-08-26T11:42:42.701Z,3.87
2022-08-26T11:43:47.505Z,3.64
2022-08-26T11:44:50.746Z,3.91
2022-08-26T11:46:01.335Z,3.91
2022-08-26T11:47:04.329Z,3.71
2022-08-26T11:48:18.022Z,4.19
2022-08-26T11:49:20.007Z,3.47
2022-08-26T11:50:28.640Z,3.50
2022-08-26T11:51:31.594Z,3.49
2022-08-26T11:52:33.636Z,3.27
2022-08-26T11:53:47.157Z,3.68
2022-08-26T11:55:03.528Z,3.62
2022-08-26T11:56:32.445Z,3.85
2022-08-26T11:57:43.020Z,3.54
2022-08-26T11:58:47.545Z,3.73
2022-08-26T11:59:49.593Z,3.45
2022-08-26T12:01:03.521Z,3.36
2022-08-26T12:02:15.206Z,3.28
2022-08-26T12:03:25.709Z,3.61
2022-08-26T12:04:34.623Z,3.33
2022-08-26T12:05:43.639Z,3.55
2022-08-26T12:06:50.994Z,3.71
2022-08-26T12:07:54.048Z,3.47
2022-08-26T12:09:00.208Z,3.35
2022-08-26T12:10:04.957Z,3.30
2022-08-26T12:11:13.732Z,3.56
2022-08-26T12:12:34.531Z,4.09
2022-08-26T12:13:39.039Z,3.68
2022-08-26T12:14:42.035Z,3.51
2022-08-26T12:15:53.433Z,3.64
2022-08-26T12:17:10.650Z,3.54
2022-08-26T12:18:28.694Z,3.77
2022-08-26T12:19:33.773Z,3.55
2022-08-26T12:20:48.397Z,3.17
2022-08-26T12:21:50.819Z,3.41
2022-08-26T12:22:53.223Z,3.45
2022-08-26T12:23:59.261Z,3.59
2022-08-26T12:25:05.417Z,3.37
2022-08-26T12:26:13.218Z,3.30
2022-08-26T12:27:20.584Z,3.29
2022-08-26T12:28:31.188Z,3.29
2022-08-26T12:29:32.998Z,3.36
2022-08-26T12:30:35.065Z,3.13
2022-08-26T12:31:42.726Z,3.48
2022-08-26T12:32:57.539Z,3.22
2022-08-26T12:34:04.354Z,3.64
2022-08-26T12:35:19.796Z,3.35
2022-08-26T12:36:48.187Z,3.46
2022-08-26T12:37:53.841Z,3.51
2022-08-26T12:38:58.267Z,3.54
2022-08-26T12:40:43.491Z,3.36
2022-08-26T12:41:50.912Z,3.71
2022-08-26T12:42:53.548Z,3.48
2022-08-26T12:43:56.797Z,3.57
2022-08-26T12:45:06.482Z,3.31
2022-08-26T12:46:12.989Z,3.49
2022-08-26T12:47:42.035Z,3.51
2022-08-26T12:48:49.666Z,3.66
2022-08-26T12:50:06.521Z,3.69
2022-08-26T12:51:22.906Z,3.65
2022-08-26T12:52:32.105Z,3.55
2022-08-26T12:53:41.944Z,3.81
2022-08-26T12:54:58.810Z,3.64
2022-08-26T12:56:17.353Z,3.41
2022-08-26T12:57:27.584Z,3.91
2022-08-26T12:58:32.782Z,3.70
2022-08-26T12:59:34.597Z,3.80
2022-08-26T13:00:40.218Z,4.05
2022-08-26T13:01:44.721Z,4.07
2022-08-26T13:02:46.532Z,3.93
2022-08-26T13:03:49.441Z,3.94
2022-08-26T13:05:00.698Z,3.53
2022-08-26T13:06:16.953Z,3.70
2022-08-26T13:07:18.579Z,3.73
2022-08-26T13:08:28.186Z,3.90
2022-08-26T13:09:31.466Z,4.05
2022-08-26T13:10:36.474Z,3.83
2022-08-26T13:11:41.221Z,3.80
2022-08-26T13:12:42.963Z,3.93
2022-08-26T13:13:45.843Z,4.04
2022-08-26T13:14:50.470Z,4.12
2022-08-26T13:15:52.521Z,4.06
2022-08-26T13:16:54.584Z,4.13
2022-08-26T13:17:58.411Z,3.92
2022-08-26T13:19:04.449Z,3.61
2022-08-26T13:20:06.605Z,4.12
2022-08-26T13:21:30.095Z,3.83
2022-08-26T13:22:42.310Z,4.21
2022-08-26T13:23:44.662Z,4.03
2022-08-26T13:24:46.541Z,3.83
2022-08-26T13:25:48.246Z,4.08
2022-08-26T13:26:51.306Z,3.97
2022-08-26T13:27:54.016Z,4.12
2022-08-26T13:29:01.988Z,4.56
2022-08-26T13:30:04.497Z,4.28
2022-08-26T13:31:06.741Z,4.31
2022-08-26T13:32:09.183Z,4.34
2022-08-26T13:33:12.243Z,4.23
2022-08-26T13:34:20.121Z,4.30
2022-08-26T13:35:21.955Z,4.61
2022-08-26T13:36:23.824Z,4.19
2022-08-26T13:37:34.464Z,4.16
2022-08-26T13:38:37.222Z,4.32
2022-08-26T13:39:39.825Z,4.75
2022-08-26T13:40:43.711Z,4.17
2022-08-26T13:41:46.223Z,4.53
2022-08-26T13:42:49.958Z,4.76
2022-08-26T13:43:52.711Z,4.47
2022-08-26T13:44:58.168Z,4.58
2022-08-26T13:46:01.593Z,4.91
2022-08-26T13:47:03.436Z,4.69
2022-08-26T13:48:07.170Z,4.33
2022-08-26T13:49:09.344Z,4.52
2022-08-26T13:50:11.131Z,4.60
2022-08-26T13:51:12.842Z,4.62
2022-08-26T13:52:14.582Z,4.81
2022-08-26T13:53:17.224Z,5.01
2022-08-26T13:54:19.184Z,4.72
2022-08-26T13:55:20.918Z,5.10
2022-08-26T13:56:23.786Z,4.96
2022-08-26T13:57:27.961Z,4.85
2022-08-26T13:58:29.729Z,4.71
2022-08-26T13:59:31.979Z,5.15
2022-08-26T14:00:34.116Z,4.76
2022-08-26T14:01:39.664Z,4.67
2022-08-26T14:02:41.512Z,4.81
2022-08-26T14:03:43.813Z,5.00
2022-08-26T14:04:45.658Z,4.83
2022-08-26T14:05:47.480Z,4.81
2022-08-26T14:06:49.245Z,5.06
2022-08-26T14:07:50.921Z,4.44
2022-08-26T14:08:53.149Z,5.07
2022-08-26T14:09:54.907Z,4.97
2022-08-26T14:10:56.730Z,5.10
2022-08-26T14:12:00.983Z,5.22
2022-08-26T14:13:04.762Z,4.78
2022-08-26T14:14:09.272Z,4.99
2022-08-26T14:15:12.077Z,4.76
2022-08-26T14:16:23.889Z,5.18
2022-08-26T14:17:26.296Z,4.90
2022-08-26T14:18:41.061Z,4.97
2022-08-26T14:19:46.771Z,4.92
2022-08-26T14:20:50.432Z,5.03
2022-08-26T14:21:52.224Z,4.99
2022-08-26T14:23:20.617Z,5.26
2022-08-26T14:24:16.508Z,5.12
2022-08-26T14:25:19.068Z,4.97
2022-08-26T14:26:29.070Z,5.57
2022-08-26T14:27:32.413Z,5.48
2022-08-26T14:28:35.395Z,5.31
2022-08-26T14:29:37.223Z,5.17
2022-08-26T14:30:42.689Z,5.43
2022-08-26T14:31:44.768Z,5.23
2022-08-26T14:32:57.143Z,5.75
2022-08-26T14:34:04.076Z,5.52
2022-08-26T14:35:06.301Z,5.40
2022-08-26T14:36:27.313Z,5.54
2022-08-26T14:37:29.038Z,5.04
2022-08-26T14:38:30.726Z,5.12
2022-08-26T14:39:32.825Z,5.42
2022-08-26T14:40:37.865Z,5.66
2022-08-26T14:41:54.701Z,5.04
2022-08-26T14:42:58.777Z,5.40
2022-08-26T14:44:06.287Z,5.47
2022-08-26T14:45:13.283Z,4.67
2022-08-26T14:46:17.865Z,5.29
2022-08-26T14:47:19.597Z,5.24